Time;durP1;ratioP1;P1;durP2;ratioP2;P2;SDS_P1;SDS_P2;PMS_P1;PMS_P2;Temp;Humidity;BMP_temperature;BMP_pressure;BME280_temperature;BME280_humidity;BME280_pressure;Samples;Min_cycle;Max_cycle;Signal;HPM_P1;HPM_P2
2022/08/05 00:03:52;;;;;;;7.63;3.58;;;;;;;;;;10045570;28;20086;-68
2022/08/05 00:08:49;;;;;;;9.00;5.28;;;;;;;;;;10057576;28;20499;-66
2022/08/05 00:13:45;;;;;;;11.05;6.43;;;;;;;;;;10064064;28;20553;-68
2022/08/05 00:18:46;;;;;;;7.05;5.95;;;;;;;;;;10066420;28;20069;-68
2022/08/05 00:23:40;;;;;;;16.25;6.05;;;;;;;;;;10061223;28;20054;-67
2022/08/05 00:28:46;;;;;;;6.85;6.25;;;;;;;;;;10058094;28;20136;-68
2022/08/05 00:33:41;;;;;;;10.95;5.65;;;;;;;;;;10059866;28;20060;-68
2022/08/05 00:38:56;;;;;;;9.93;5.22;;;;;;;;;;10072543;28;20064;-68
2022/08/05 00:43:51;;;;;;;10.02;5.03;;;;;;;;;;10061150;28;20123;-68
2022/08/05 00:48:46;;;;;;;7.88;3.80;;;;;;;;;;10066003;28;20461;-68
2022/08/05 00:53:43;;;;;;;6.22;3.53;;;;;;;;;;10071018;28;20089;-68
2022/08/05 00:58:55;;;;;;;4.95;3.05;;;;;;;;;;10049650;28;20103;-68
2022/08/05 01:03:53;;;;;;;5.18;3.10;;;;;;;;;;10054248;28;20045;-68
2022/08/05 01:08:46;;;;;;;4.70;3.20;;;;;;;;;;10057500;28;20053;-68
2022/08/05 01:14:14;;;;;;;3.08;2.35;;;;;;;;;;10068011;28;20500;-68
2022/08/05 01:19:34;;;;;;;3.30;3.00;;;;;;;;;;10064763;28;20141;-68
2022/08/05 01:25:21;;;;;;;3.90;2.90;;;;;;;;;;10058183;28;20554;-68
2022/08/05 01:30:35;;;;;;;2.97;2.53;;;;;;;;;;10055545;28;20376;-68
2022/08/05 01:35:31;;;;;;;8.43;2.72;;;;;;;;;;10071313;28;20081;-68
2022/08/05 01:40:45;;;;;;;3.25;2.95;;;;;;;;;;10071342;28;20050;-67
2022/08/05 01:45:41;;;;;;;3.63;3.25;;;;;;;;;;10056009;28;20060;-68
2022/08/05 01:50:39;;;;;;;6.35;2.50;;;;;;;;;;10059675;28;20512;-68
2022/08/05 01:55:45;;;;;;;6.20;3.22;;;;;;;;;;10065566;28;20053;-68
2022/08/05 02:00:41;;;;;;;5.63;3.47;;;;;;;;;;10068343;28;20095;-68
2022/08/05 02:05:36;;;;;;;4.18;3.25;;;;;;;;;;10055594;28;20072;-68
2022/08/05 02:10:41;;;;;;;6.35;3.35;;;;;;;;;;10055138;28;20045;-68
2022/08/05 02:15:36;;;;;;;3.80;3.47;;;;;;;;;;10055281;28;20045;-68
2022/08/05 02:20:55;;;;;;;5.97;4.85;;;;;;;;;;10064464;28;20076;-68
2022/08/05 02:25:52;;;;;;;4.03;2.83;;;;;;;;;;10063603;28;20050;-68
2022/08/05 02:30:50;;;;;;;4.68;3.38;;;;;;;;;;10066154;28;20314;-68
2022/08/05 02:35:49;;;;;;;5.85;3.47;;;;;;;;;;10067183;28;20045;-68
2022/08/05 02:40:54;;;;;;;4.70;2.90;;;;;;;;;;10069320;28;20053;-68
2022/08/05 02:45:50;;;;;;;8.23;3.33;;;;;;;;;;10069718;28;20104;-68
2022/08/05 02:50:47;;;;;;;5.88;3.30;;;;;;;;;;10069341;28;20053;-68
2022/08/05 02:55:41;;;;;;;4.13;2.85;;;;;;;;;;10083579;28;20111;-68
2022/08/05 03:00:54;;;;;;;6.95;2.83;;;;;;;;;;10067649;28;20498;-68
2022/08/05 03:05:48;;;;;;;3.03;2.83;;;;;;;;;;10068381;28;20386;-68
2022/08/05 03:11:02;;;;;;;3.58;2.58;;;;;;;;;;10066819;28;20045;-68
2022/08/05 03:16:15;;;;;;;7.53;3.60;;;;;;;;;;10068425;28;20485;-67
2022/08/05 03:21:12;;;;;;;6.47;4.18;;;;;;;;;;10068293;28;20132;-68
2022/08/05 03:26:06;;;;;;;8.10;4.90;;;;;;;;;;10068269;28;20071;-67
2022/08/05 03:31:20;;;;;;;6.93;4.85;;;;;;;;;;10067552;28;20052;-68
2022/08/05 03:36:34;;;;;;;12.52;5.60;;;;;;;;;;10067375;28;20051;-68
2022/08/05 03:41:28;;;;;;;11.73;10.10;;;;;;;;;;10067531;28;20524;-68
2022/08/05 03:46:31;;;;;;;15.43;11.90;;;;;;;;;;10066853;28;20049;-68
2022/08/05 03:51:29;;;;;;;15.60;12.35;;;;;;;;;;10066721;28;20064;-68
2022/08/05 03:56:43;;;;;;;;;;;;;;;;;;10068092;28;20057;-65
2022/08/05 04:01:41;;;;;;;8.38;7.68;;;;;;;;;;10061795;28;19925;-67
2022/08/05 04:06:37;;;;;;;9.98;8.75;;;;;;;;;;10064294;28;20053;-68
2022/08/05 04:11:39;;;;;;;8.85;8.05;;;;;;;;;;10051431;28;20050;-68
2022/08/05 04:16:43;;;;;;;9.80;7.88;;;;;;;;;;10059021;28;20065;-68
2022/08/05 04:21:37;;;;;;;5.95;5.35;;;;;;;;;;10058454;28;20562;-68
2022/08/05 04:26:50;;;;;;;11.70;6.60;;;;;;;;;;10064830;28;20521;-68
2022/08/05 04:31:45;;;;;;;8.10;5.82;;;;;;;;;;10065523;28;20060;-68
2022/08/05 04:36:40;;;;;;;6.18;5.57;;;;;;;;;;10063269;28;20053;-68
2022/08/05 04:41:41;;;;;;;10.30;5.70;;;;;;;;;;10037327;28;20061;-66
2022/08/05 04:46:38;;;;;;;6.78;5.10;;;;;;;;;;10049876;28;20203;-68
2022/08/05 04:51:31;;;;;;;10.82;4.90;;;;;;;;;;10064484;28;20057;-68
2022/08/05 04:56:27;;;;;;;8.15;4.03;;;;;;;;;;10056032;28;20061;-68
2022/08/05 05:01:29;;;;;;;4.35;3.55;;;;;;;;;;10055967;28;20104;-67
2022/08/05 05:06:43;;;;;;;9.55;4.40;;;;;;;;;;10052008;28;20450;-68
2022/08/05 05:11:43;;;;;;;5.72;3.88;;;;;;;;;;10052339;28;20128;-68
2022/08/05 05:16:48;;;;;;;4.93;3.80;;;;;;;;;;10065548;28;20064;-68
2022/08/05 05:21:42;;;;;;;8.35;4.43;;;;;;;;;;10049760;28;20045;-68
2022/08/05 05:26:38;;;;;;;8.55;4.15;;;;;;;;;;10057440;28;20057;-68
2022/08/05 05:31:38;;;;;;;4.60;4.10;;;;;;;;;;10066444;28;20058;-69
2022/08/05 05:36:31;;;;;;;14.93;5.25;;;;;;;;;;10062242;28;20066;-68
2022/08/05 05:41:29;;;;;;;4.90;3.75;;;;;;;;;;10050753;28;20053;-68
2022/08/05 05:46:34;;;;;;;4.38;3.97;;;;;;;;;;10068522;28;20075;-69
2022/08/05 05:51:32;;;;;;;7.38;4.22;;;;;;;;;;10062326;28;20048;-68
2022/08/05 05:56:42;;;;;;;6.20;4.53;;;;;;;;;;10062310;28;20468;-69
2022/08/05 06:01:40;;;;;;;17.42;5.13;;;;;;;;;;10059586;28;20506;-69
2022/08/05 06:06:49;;;;;;;13.60;4.97;;;;;;;;;;10059356;28;20457;-68
2022/08/05 06:11:44;;;;;;;9.68;4.57;;;;;;;;;;10063783;28;20042;-69
2022/08/05 06:16:52;;;;;;;6.20;4.63;;;;;;;;;;10069666;28;20548;-69
2022/08/05 06:21:48;;;;;;;13.32;4.30;;;;;;;;;;10063424;28;20132;-68
2022/08/05 06:26:43;;;;;;;12.88;4.60;;;;;;;;;;10069031;28;20061;-68
2022/08/05 06:31:44;;;;;;;11.38;5.07;;;;;;;;;;10059497;28;20034;-68
2022/08/05 06:36:37;;;;;;;11.40;4.97;;;;;;;;;;10053924;28;20049;-67
2022/08/05 06:41:50;;;;;;;8.80;4.38;;;;;;;;;;10044524;28;20396;-68
2022/08/05 06:46:44;;;;;;;11.48;5.20;;;;;;;;;;10060007;28;20136;-68
2022/08/05 06:51:43;;;;;;;7.68;4.32;;;;;;;;;;10068264;28;20506;-68
2022/08/05 06:56:37;;;;;;;15.07;4.60;;;;;;;;;;10064960;28;20057;-69
2022/08/05 07:01:30;;;;;;;17.48;4.95;;;;;;;;;;10062715;28;20456;-69
2022/08/05 07:06:25;;;;;;;17.40;6.38;;;;;;;;;;10064634;28;20085;-69
2022/08/05 07:11:21;;;;;;;9.95;6.15;;;;;;;;;;10066378;28;20060;-68
2022/08/05 07:21:49;;;;;;;10.73;6.25;;;;;;;;;;10065058;28;20041;-69
2022/08/05 07:26:53;;;;;;;10.20;6.05;;;;;;;;;;10059254;28;20063;-69
2022/08/05 07:31:47;;;;;;;5.75;3.80;;;;;;;;;;10054684;28;20455;-69
2022/08/05 07:36:47;;;;;;;7.80;4.65;;;;;;;;;;10062974;28;20057;-69
2022/08/05 07:41:43;;;;;;;8.32;3.58;;;;;;;;;;10056918;28;20128;-69
2022/08/05 07:46:57;;;;;;;6.78;3.55;;;;;;;;;;10053956;28;20054;-69
2022/08/05 07:51:53;;;;;;;4.57;3.33;;;;;;;;;;10058176;28;20053;-68
2022/08/05 07:56:47;;;;;;;5.97;3.10;;;;;;;;;;10057519;28;20124;-69
2022/08/05 08:02:02;;;;;;;4.65;2.90;;;;;;;;;;10060098;28;20128;-69
2022/08/05 08:07:07;;;;;;;9.13;3.13;;;;;;;;;;10061484;28;20132;-69
2022/08/05 08:12:03;;;;;;;3.53;3.08;;;;;;;;;;10063361;28;20170;-68
2022/08/05 08:17:18;;;;;;;2.65;2.45;;;;;;;;;;10062031;28;20033;-69
2022/08/05 08:22:13;;;;;;;6.17;2.50;;;;;;;;;;10053763;28;20053;-69
2022/08/05 08:27:08;;;;;;;4.70;2.45;;;;;;;;;;10051430;28;20144;-69
2022/08/05 08:32:08;;;;;;;5.10;2.25;;;;;;;;;;10054134;28;20112;-67
2022/08/05 08:37:02;;;;;;;3.40;2.00;;;;;;;;;;10051541;28;20088;-68
2022/08/05 08:41:59;;;;;;;6.03;1.80;;;;;;;;;;10054890;28;20081;-67
2022/08/05 08:46:55;;;;;;;1.75;1.65;;;;;;;;;;10063129;28;20395;-67
2022/08/05 08:52:13;;;;;;;7.85;1.88;;;;;;;;;;10057447;28;20056;-67
2022/08/05 08:57:07;;;;;;;7.70;2.00;;;;;;;;;;10057764;28;20417;-67
2022/08/05 09:02:05;;;;;;;;;;;;;;;;;;10067127;28;20136;-67
2022/08/05 09:07:05;;;;;;;5.53;2.00;;;;;;;;;;10062163;28;19924;-67
2022/08/05 09:12:11;;;;;;;2.63;2.05;;;;;;;;;;10059666;28;20104;-67
2022/08/05 09:17:21;;;;;;;8.02;3.42;;;;;;;;;;10054274;28;20037;-67
2022/08/05 09:23:11;;;;;;;6.72;1.88;;;;;;;;;;10068533;28;20057;-67
2022/08/05 09:28:16;;;;;;;2.72;1.67;;;;;;;;;;10068950;28;20054;-68
2022/08/05 09:33:13;;;;;;;6.07;2.05;;;;;;;;;;10057888;28;20058;-68
2022/08/05 09:38:09;;;;;;;5.43;2.33;;;;;;;;;;10069886;28;20054;-68
2022/08/05 09:43:26;;;;;;;2.65;1.40;;;;;;;;;;10068941;28;20108;-68
2022/08/05 09:48:34;;;;;;;11.82;2.20;;;;;;;;;;10063394;28;20057;-68
2022/08/05 09:53:28;;;;;;;9.20;2.10;;;;;;;;;;10063002;28;20053;-67
2022/08/05 09:59:32;;;;;;;8.23;2.53;;;;;;;;;;10066855;28;20037;-68
2022/08/05 10:04:38;;;;;;;4.43;1.75;;;;;;;;;;10065259;28;20144;-67
2022/08/05 10:09:32;;;;;;;2.75;1.40;;;;;;;;;;10068677;28;20042;-69
2022/08/05 10:14:36;;;;;;;7.22;1.38;;;;;;;;;;10056141;28;20495;-68
2022/08/05 10:19:37;;;;;;;8.18;1.65;;;;;;;;;;10056544;28;20057;-67
2022/08/05 10:24:51;;;;;;;6.73;1.37;;;;;;;;;;10054796;28;20052;-68
2022/08/05 10:29:45;;;;;;;;;;;;;;;;;;10052348;28;20056;-68
2022/08/05 10:34:59;;;;;;;3.42;1.35;;;;;;;;;;10057679;28;19921;-67
2022/08/05 10:39:56;;;;;;;6.35;1.23;;;;;;;;;;10062167;28;20123;-67
2022/08/05 10:45:11;;;;;;;3.15;1.17;;;;;;;;;;10050913;28;20046;-68
2022/08/05 10:50:25;;;;;;;8.98;1.27;;;;;;;;;;10059422;28;20061;-67
2022/08/05 10:55:31;;;;;;;3.22;0.90;;;;;;;;;;10066001;28;20137;-67
2022/08/05 11:00:48;;;;;;;4.85;1.17;;;;;;;;;;10064501;28;20095;-67
2022/08/05 11:06:20;;;;;;;2.60;0.90;;;;;;;;;;10058850;28;20049;-67
2022/08/05 11:11:49;;;;;;;9.70;1.23;;;;;;;;;;10062492;28;20045;-68
2022/08/05 11:17:27;;;;;;;3.13;1.40;;;;;;;;;;10057445;28;20461;-68
2022/08/05 11:22:47;;;;;;;4.78;1.52;;;;;;;;;;10060458;28;20053;-68
2022/08/05 11:27:48;;;;;;;5.18;1.35;;;;;;;;;;10056351;28;20056;-68
2022/08/05 11:33:27;;;;;;;6.70;1.30;;;;;;;;;;10057638;28;20049;-68
2022/08/05 11:38:41;;;;;;;5.35;1.42;;;;;;;;;;10057174;28;20062;-67
2022/08/05 11:43:55;;;;;;;2.50;1.05;;;;;;;;;;10063621;28;20045;-68
2022/08/05 11:49:07;;;;;;;1.17;0.80;;;;;;;;;;10057654;28;20503;-67
2022/08/05 11:54:02;;;;;;;2.15;0.82;;;;;;;;;;10060505;28;20509;-67
2022/08/05 11:58:57;;;;;;;1.85;1.10;;;;;;;;;;10065016;28;20128;-67
2022/08/05 12:03:56;;;;;;;6.00;1.30;;;;;;;;;;10053791;28;20057;-67
2022/08/05 12:08:57;;;;;;;7.38;1.30;;;;;;;;;;10064016;28;20050;-67
2022/08/05 12:14:04;;;;;;;3.60;1.08;;;;;;;;;;10062698;28;20056;-67
2022/08/05 12:18:59;;;;;;;4.82;1.08;;;;;;;;;;10061548;28;20128;-67
2022/08/05 12:24:09;;;;;;;4.40;1.10;;;;;;;;;;10058525;28;20555;-68
2022/08/05 12:29:07;;;;;;;2.03;1.25;;;;;;;;;;10059885;28;20065;-68
2022/08/05 12:34:08;;;;;;;6.57;1.20;;;;;;;;;;10065438;28;20111;-67
2022/08/05 12:39:16;;;;;;;4.43;1.30;;;;;;;;;;10074994;28;20053;-67
2022/08/05 12:44:11;;;;;;;3.83;1.35;;;;;;;;;;10073292;28;20068;-67
2022/08/05 12:49:10;;;;;;;8.57;1.20;;;;;;;;;;10072834;28;20111;-67
2022/08/05 12:54:06;;;;;;;7.47;1.02;;;;;;;;;;10069282;28;20061;-67
2022/08/05 12:59:19;;;;;;;4.40;1.23;;;;;;;;;;10072737;28;20069;-67
2022/08/05 13:04:19;;;;;;;3.05;1.38;;;;;;;;;;10062333;28;20046;-67
2022/08/05 13:09:17;;;;;;;3.22;1.10;;;;;;;;;;10072763;28;20053;-67
2022/08/05 13:14:24;;;;;;;1.80;1.10;;;;;;;;;;10072563;28;20132;-67
2022/08/05 13:19:28;;;;;;;5.65;1.27;;;;;;;;;;10072285;28;20089;-67
2022/08/05 13:24:42;;;;;;;2.77;1.47;;;;;;;;;;10072150;28;20436;-67
2022/08/05 13:29:52;;;;;;;9.05;1.50;;;;;;;;;;10071430;28;20053;-68
2022/08/05 13:35:10;;;;;;;2.87;1.60;;;;;;;;;;10068039;28;20042;-67
2022/08/05 13:40:07;;;;;;;1.60;1.20;;;;;;;;;;10070583;28;20486;-67
2022/08/05 13:45:11;;;;;;;5.53;1.45;;;;;;;;;;10063426;28;20042;-67
2022/08/05 13:50:05;;;;;;;2.47;1.75;;;;;;;;;;10066949;28;20057;-67
2022/08/05 13:55:06;;;;;;;8.10;1.77;;;;;;;;;;10070749;28;20100;-66
2022/08/05 14:00:01;;;;;;;4.68;1.10;;;;;;;;;;10070520;28;20490;-67
2022/08/05 14:05:09;;;;;;;9.60;1.58;;;;;;;;;;10069652;28;20537;-67
2022/08/05 14:10:07;;;;;;;2.15;1.20;;;;;;;;;;10070768;28;20049;-67
2022/08/05 14:15:01;;;;;;;4.30;1.85;;;;;;;;;;10069194;28;20506;-66
2022/08/05 14:20:14;;;;;;;3.22;1.55;;;;;;;;;;10062237;28;20049;-68
2022/08/05 14:25:10;;;;;;;4.18;1.83;;;;;;;;;;10064985;28;20889;-71
2022/08/05 14:30:14;;;;;;;3.03;1.47;;;;;;;;;;10065518;28;20071;-66
2022/08/05 14:35:13;;;;;;;5.35;2.17;;;;;;;;;;10064611;28;20050;-67
2022/08/05 14:40:12;;;;;;;8.02;1.77;;;;;;;;;;10059970;28;20072;-67
2022/08/05 14:45:10;;;;;;;3.03;1.60;;;;;;;;;;10062931;28;20082;-68
2022/08/05 14:50:05;;;;;;;2.90;1.60;;;;;;;;;;10065152;28;20150;-70
2022/08/05 14:55:10;;;;;;;1.67;1.58;;;;;;;;;;10060841;28;20271;-69
2022/08/05 15:00:10;;;;;;;1.92;1.70;;;;;;;;;;10061538;28;20041;-65
2022/08/05 15:05:09;;;;;;;6.72;2.10;;;;;;;;;;10064921;28;20049;-68
2022/08/05 15:10:08;;;;;;;4.57;1.70;;;;;;;;;;10069025;28;20104;-68
2022/08/05 15:15:05;;;;;;;2.15;1.52;;;;;;;;;;10062632;28;20107;-66
2022/08/05 15:20:09;;;;;;;1.60;1.40;;;;;;;;;;10061085;28;20506;-65
2022/08/05 15:25:11;;;;;;;2.38;1.70;;;;;;;;;;10065304;28;20045;-67
2022/08/05 15:30:09;;;;;;;3.53;1.40;;;;;;;;;;10064537;28;20045;-66
2022/08/05 15:35:09;;;;;;;6.22;2.20;;;;;;;;;;10065553;28;20053;-66
2022/08/05 15:40:06;;;;;;;6.93;2.00;;;;;;;;;;10067426;28;20054;-65
2022/08/05 15:45:20;;;;;;;7.82;1.65;;;;;;;;;;10067665;28;20044;-65
2022/08/05 15:50:30;;;;;;;3.38;1.60;;;;;;;;;;10067582;28;20049;-65
2022/08/05 15:55:24;;;;;;;3.45;1.92;;;;;;;;;;10058990;28;20065;-66
2022/08/05 16:00:38;;;;;;;5.72;1.98;;;;;;;;;;10060856;28;20421;-66
2022/08/05 16:05:49;;;;;;;4.32;1.48;;;;;;;;;;10063508;28;20053;-65
2022/08/05 16:10:48;;;;;;;4.63;1.80;;;;;;;;;;10064127;28;20132;-66
2022/08/05 16:15:42;;;;;;;3.35;1.70;;;;;;;;;;10060614;28;20482;-66
2022/08/05 16:20:39;;;;;;;4.57;2.00;;;;;;;;;;10060290;28;20136;-68
2022/08/05 16:25:34;;;;;;;4.25;1.88;;;;;;;;;;10062858;28;20545;-65
2022/08/05 16:30:29;;;;;;;7.90;1.92;;;;;;;;;;10064289;28;20096;-67
2022/08/05 16:35:23;;;;;;;7.68;2.08;;;;;;;;;;10057604;28;20128;-72
2022/08/05 16:40:24;;;;;;;3.10;1.70;;;;;;;;;;10060192;28;20099;-67
2022/08/05 16:45:21;;;;;;;5.47;2.15;;;;;;;;;;10062164;28;20114;-67
2022/08/05 16:50:35;;;;;;;1.60;1.50;;;;;;;;;;10062245;28;20060;-71
2022/08/05 16:55:31;;;;;;;5.53;1.98;;;;;;;;;;10063078;28;20068;-68
2022/08/05 17:00:39;;;;;;;3.70;2.05;;;;;;;;;;10065769;28;20058;-68
2022/08/05 17:05:33;;;;;;;3.13;1.88;;;;;;;;;;10064604;28;20057;-68
2022/08/05 17:10:30;;;;;;;4.32;1.83;;;;;;;;;;10064984;28;20532;-68
2022/08/05 17:15:23;;;;;;;4.38;2.08;;;;;;;;;;10062751;28;20096;-69
2022/08/05 17:20:37;;;;;;;6.00;2.00;;;;;;;;;;10069334;28;20054;-69
2022/08/05 17:25:32;;;;;;;;;;;;;;;;;;10071464;28;20052;-69
2022/08/05 17:30:32;;;;;;;2.40;2.20;;;;;;;;;;10070803;28;19925;-67
2022/08/05 17:35:42;;;;;;;2.65;1.90;;;;;;;;;;10069828;28;20147;-67
2022/08/05 17:40:55;;;;;;;6.80;1.90;;;;;;;;;;10071457;28;20045;-67
2022/08/05 17:45:50;;;;;;;9.80;2.67;;;;;;;;;;10070881;28;20111;-67
2022/08/05 17:50:45;;;;;;;7.25;2.58;;;;;;;;;;10071127;28;20053;-67
2022/08/05 17:55:42;;;;;;;7.07;2.40;;;;;;;;;;10070553;28;20063;-67
2022/08/05 18:00:36;;;;;;;7.05;2.65;;;;;;;;;;10070179;28;20080;-67
2022/08/05 18:05:38;;;;;;;13.00;4.10;;;;;;;;;;10071248;28;20128;-67
2022/08/05 18:10:32;;;;;;;13.05;2.78;;;;;;;;;;10070328;28;20461;-68
2022/08/05 18:15:26;;;;;;;6.25;3.45;;;;;;;;;;10070094;28;20095;-68
2022/08/05 18:20:26;;;;;;;16.95;4.05;;;;;;;;;;10070584;28;20057;-67
2022/08/05 18:25:22;;;;;;;8.65;3.22;;;;;;;;;;10069709;28;20073;-67
2022/08/05 18:30:17;;;;;;;5.88;2.50;;;;;;;;;;10068623;28;20441;-67
2022/08/05 18:35:11;;;;;;;7.40;2.90;;;;;;;;;;10069878;28;20406;-67
2022/08/05 18:40:07;;;;;;;2.92;2.13;;;;;;;;;;10068931;28;20152;-67
2022/08/05 18:45:20;;;;;;;3.58;2.53;;;;;;;;;;10069055;28;20498;-66
2022/08/05 18:55:38;;;;;;;6.03;2.88;;;;;;;;;;10067928;28;20064;-70
2022/08/05 19:00:32;;;;;;;10.75;2.83;;;;;;;;;;10068584;28;20064;-70
2022/08/05 19:05:27;;;;;;;9.18;2.90;;;;;;;;;;10066507;28;20045;-69
2022/08/05 19:10:40;;;;;;;12.18;3.08;;;;;;;;;;10067622;28;20052;-69
2022/08/05 19:15:34;;;;;;;11.95;3.05;;;;;;;;;;10067387;28;20402;-69
2022/08/05 19:20:51;;;;;;;6.47;3.38;;;;;;;;;;10066710;28;20041;-70
2022/08/05 19:25:45;;;;;;;9.40;3.13;;;;;;;;;;10067865;28;20099;-69
2022/08/05 19:30:40;;;;;;;3.72;3.35;;;;;;;;;;10062974;28;20787;-67
2022/08/05 19:35:42;;;;;;;3.50;2.42;;;;;;;;;;10060419;28;20056;-69
2022/08/05 19:40:49;;;;;;;2.90;2.25;;;;;;;;;;10057923;28;20038;-70
2022/08/05 19:45:44;;;;;;;13.18;2.33;;;;;;;;;;10063845;28;20050;-67
2022/08/05 19:50:45;;;;;;;6.45;2.13;;;;;;;;;;10064345;28;20046;-70
2022/08/05 19:55:39;;;;;;;4.03;2.80;;;;;;;;;;10063140;28;20092;-68
2022/08/05 20:00:52;;;;;;;3.55;2.70;;;;;;;;;;10061816;28;20060;-69
2022/08/05 20:05:48;;;;;;;8.98;2.53;;;;;;;;;;10062876;28;20064;-67
2022/08/05 20:10:44;;;;;;;6.47;2.42;;;;;;;;;;10061451;28;20041;-67
2022/08/05 20:15:43;;;;;;;5.32;2.45;;;;;;;;;;10059536;28;20057;-68
2022/08/05 20:20:48;;;;;;;4.68;2.38;;;;;;;;;;10063348;28;20099;-69
2022/08/05 20:25:42;;;;;;;3.60;3.10;;;;;;;;;;10065159;28;20053;-67
2022/08/05 20:30:37;;;;;;;5.03;2.53;;;;;;;;;;10065674;28;20076;-68
2022/08/05 20:35:31;;;;;;;7.18;2.90;;;;;;;;;;10065546;28;20096;-67
2022/08/05 20:40:34;;;;;;;4.68;3.05;;;;;;;;;;10062726;28;20060;-68
2022/08/05 20:45:27;;;;;;;3.30;2.88;;;;;;;;;;10064381;28;20088;-68
2022/08/05 20:50:40;;;;;;;3.70;2.72;;;;;;;;;;10065792;28;20437;-68
2022/08/05 20:55:39;;;;;;;7.25;3.20;;;;;;;;;;10072702;28;20064;-68
2022/08/05 21:00:53;;;;;;;14.25;3.88;;;;;;;;;;10072419;28;20050;-68
2022/08/05 21:05:48;;;;;;;9.60;3.65;;;;;;;;;;10073566;28;20053;-68
2022/08/05 21:10:47;;;;;;;10.13;3.38;;;;;;;;;;10072641;28;20045;-68
2022/08/05 21:15:41;;;;;;;4.07;3.25;;;;;;;;;;10072344;28;20410;-68
2022/08/05 21:20:44;;;;;;;11.65;3.63;;;;;;;;;;10067559;28;20073;-68
2022/08/05 21:25:43;;;;;;;6.15;4.22;;;;;;;;;;10062236;28;20045;-68
2022/08/05 21:30:37;;;;;;;8.23;3.78;;;;;;;;;;10071787;28;20053;-68
2022/08/05 21:35:33;;;;;;;3.80;3.35;;;;;;;;;;10071238;28;20053;-68
2022/08/05 21:40:46;;;;;;;5.03;3.92;;;;;;;;;;10067494;28;20084;-68
2022/08/05 21:45:40;;;;;;;4.95;3.60;;;;;;;;;;10071188;28;20067;-68
2022/08/05 21:50:51;;;;;;;6.28;3.65;;;;;;;;;;10072059;28;20045;-68
2022/08/05 21:55:47;;;;;;;6.15;3.40;;;;;;;;;;10070602;28;20468;-68
2022/08/05 22:01:00;;;;;;;9.18;3.55;;;;;;;;;;10068480;28;20091;-69
2022/08/05 22:05:55;;;;;;;10.15;3.38;;;;;;;;;;10068487;28;20060;-69
2022/08/05 22:10:49;;;;;;;6.72;4.15;;;;;;;;;;10067704;28;20045;-69
2022/08/05 22:15:45;;;;;;;6.60;4.03;;;;;;;;;;10069337;28;20045;-69
2022/08/05 22:20:58;;;;;;;8.27;3.70;;;;;;;;;;10070362;28;20055;-69
2022/08/05 22:31:09;;;;;;;4.07;3.67;;;;;;;;;;10068263;28;19928;-69
2022/08/05 22:36:04;;;;;;;6.55;3.13;;;;;;;;;;10066456;28;20163;-69
2022/08/05 22:40:58;;;;;;;10.25;4.18;;;;;;;;;;10065641;28;20053;-69
2022/08/05 22:46:01;;;;;;;11.93;4.25;;;;;;;;;;10067311;28;20049;-69
2022/08/05 22:51:06;;;;;;;8.88;4.47;;;;;;;;;;10067838;28;20111;-68
2022/08/05 22:56:08;;;;;;;9.55;4.20;;;;;;;;;;10067923;28;20069;-68
2022/08/05 23:01:05;;;;;;;4.47;3.83;;;;;;;;;;10068244;28;20061;-68
2022/08/05 23:06:01;;;;;;;4.78;3.60;;;;;;;;;;10065693;28;20077;-68
2022/08/05 23:10:55;;;;;;;8.32;4.82;;;;;;;;;;10063171;28;20076;-68
2022/08/05 23:15:49;;;;;;;4.75;4.35;;;;;;;;;;10065779;28;20042;-68
2022/08/05 23:20:43;;;;;;;12.18;3.83;;;;;;;;;;10066310;28;20053;-68
2022/08/05 23:25:37;;;;;;;6.78;3.60;;;;;;;;;;10067311;28;20056;-68
2022/08/05 23:30:47;;;;;;;9.57;4.20;;;;;;;;;;10067383;28;20049;-68
2022/08/05 23:35:46;;;;;;;6.38;3.17;;;;;;;;;;10066612;28;20049;-68
2022/08/05 23:40:41;;;;;;;5.78;3.65;;;;;;;;;;10067182;28;20076;-68
2022/08/05 23:45:42;;;;;;;5.03;3.83;;;;;;;;;;10061263;28;20041;-68
2022/08/05 23:50:37;;;;;;;3.67;3.15;;;;;;;;;;10065855;28;20053;-68
2022/08/05 23:55:31;;;;;;;10.77;3.67;;;;;;;;;;10066403;28;20407;-68
